Hauptseite
METAR-TAF:

METAR-TAF

Flughäfen :

Meiringen, Schweiz

Militärflugplatz Meiringen

Breite: 46-44-25N, Länge: 8-06-36E, Höhe: 577 m

Beobachtung

Neuester Wetterbericht von vor 1 Stunde und 6 Minuten, um 18:50 UTC
Wind 5 kt aus Ost
Temperatur 4°C
Luftfeuchtigkeit 100%
Luftdruck 1016 hPa
Sichtweite: 4000 m
Leicht bewölkt in der Höhe von 500 ft
Durchbrochene Bewölkung in der Höhe von 1200 ft
Geschlossene Wolkendecke in der Höhe von 4100 ft
Regen, feuchter Dunst

METAR: LSMM 221850Z 09005KT 4000 RA BR FEW005 BKN012 OVC041 04/04 Q1016 RMK GRN

Zeit: 20:56 (19:56 UTC)


TAF: fehlend

Wetterbeobachtungen und Prognosen von mehr als 4000 Flughäfen (METAR und TAF Bericht).

Die verfügbaren Stationen werden durch gelbe und rote Markierungen auf der Karte dargestellt.

Führen Sie die Maus auf sie, um den Namen der Station zu sehen.

Darauf klicken, um die Beobachtung von Wetterbeobachtungen und Prognosen zu sehen.

Um die Karte zu ändern : klicken Sie auf den grünen Tasten mit einem schwarzen Kreuz Zum Vergrößern, auf den grünen Button mit einem Gedankenstrich zu verkleinern, oder auf die grünen Pfeile für benachbarte Karten.


METAR-TAF: